createdAt,value
2017-11-21T00:02:20.789Z,9.80
2017-11-21T00:04:52.704Z,9.50
2017-11-21T00:07:24.577Z,9.63
2017-11-21T00:09:57.492Z,9.43
2017-11-21T00:12:29.387Z,10.03
2017-11-21T00:15:01.306Z,9.17
2017-11-21T00:17:33.188Z,9.27
2017-11-21T00:20:05.102Z,9.30
2017-11-21T00:22:37.751Z,9.30
2017-11-21T00:25:10.409Z,9.73
2017-11-21T00:27:42.294Z,9.60
2017-11-21T00:30:14.196Z,9.03
2017-11-21T00:32:46.076Z,9.53
2017-11-21T00:35:17.981Z,10.27
2017-11-21T00:37:49.852Z,8.93
2017-11-21T00:40:21.762Z,9.23
2017-11-21T00:42:53.644Z,8.73
2017-11-21T00:45:25.552Z,8.57
2017-11-21T00:47:58.202Z,8.50
2017-11-21T00:50:30.103Z,9.50
2017-11-21T00:53:01.977Z,9.03
2017-11-21T00:55:33.880Z,9.53
2017-11-21T00:58:05.762Z,10.23
2017-11-21T01:00:38.430Z,9.70
2017-11-21T01:03:10.300Z,10.93
2017-11-21T01:05:42.973Z,9.97
2017-11-21T01:08:14.848Z,10.67
2017-11-21T01:10:46.819Z,11.37
2017-11-21T01:13:18.701Z,11.03
2017-11-21T01:15:50.671Z,12.23
2017-11-21T01:18:22.611Z,12.87
2017-11-21T01:20:54.537Z,11.50
2017-11-21T01:23:26.413Z,13.17
2017-11-21T01:25:59.085Z,12.33
2017-11-21T01:28:31.746Z,12.03
2017-11-21T01:31:03.637Z,11.53
2017-11-21T01:33:35.537Z,11.07
2017-11-21T01:36:07.437Z,11.87
2017-11-21T01:38:40.089Z,11.43
2017-11-21T01:41:12.000Z,11.33
2017-11-21T01:43:43.879Z,10.43
2017-11-21T01:46:15.791Z,10.93
2017-11-21T01:48:47.665Z,10.33
2017-11-21T01:51:20.342Z,10.17
2017-11-21T01:53:53.024Z,10.10
2017-11-21T01:56:25.709Z,9.90
2017-11-21T01:58:58.344Z,10.00
2017-11-21T02:01:30.249Z,10.77
2017-11-21T02:04:02.130Z,11.37
2017-11-21T02:06:34.024Z,11.93
2017-11-21T02:09:05.909Z,12.43
2017-11-21T02:11:38.589Z,13.50
2017-11-21T02:14:10.462Z,14.20
2017-11-21T02:16:46.090Z,14.73
2017-11-21T02:19:17.977Z,14.90
2017-11-21T02:21:50.650Z,16.73
2017-11-21T02:24:23.318Z,16.27
2017-11-21T02:26:55.985Z,17.67
2017-11-21T02:29:27.870Z,16.60
2017-11-21T02:31:59.787Z,17.67
2017-11-21T02:34:31.673Z,18.43
2017-11-21T02:37:03.606Z,19.43
2017-11-21T02:39:35.491Z,19.00
2017-11-21T02:42:08.188Z,20.50
2017-11-21T02:44:40.080Z,20.50
2017-11-21T02:47:12.001Z,20.87
2017-11-21T02:49:44.641Z,18.90
2017-11-21T02:52:16.551Z,19.70
2017-11-21T02:54:48.429Z,21.00
2017-11-21T02:57:20.346Z,20.40
2017-11-21T02:59:52.230Z,21.30
2017-11-21T03:02:24.900Z,22.47
2017-11-21T03:04:57.536Z,21.83
2017-11-21T03:07:29.448Z,20.23
2017-11-21T03:10:02.102Z,20.53
2017-11-21T03:12:34.000Z,21.70
2017-11-21T03:15:05.873Z,20.83
2017-11-21T03:17:37.783Z,20.03
2017-11-21T03:20:21.564Z,20.27
2017-11-21T03:23:05.389Z,20.83
2017-11-21T03:28:44.110Z,19.87
2017-11-21T03:31:15.994Z,16.87
2017-11-21T03:33:47.912Z,15.57
2017-11-21T03:36:19.808Z,15.57
2017-11-21T03:38:52.697Z,16.53
2017-11-21T03:41:25.286Z,17.53
2017-11-21T03:43:57.197Z,16.70
2017-11-21T03:46:29.081Z,15.73
2017-11-21T03:49:01.741Z,16.57
2017-11-21T03:51:33.616Z,16.10
2017-11-21T03:54:06.288Z,18.67
2017-11-21T03:56:38.170Z,16.83
2017-11-21T03:59:10.090Z,17.57
2017-11-21T04:01:41.995Z,17.80
2017-11-21T04:04:15.312Z,16.10
2017-11-21T04:06:47.198Z,16.23
2017-11-21T04:09:19.109Z,16.90
2017-11-21T04:11:51.749Z,17.63
2017-11-21T04:14:23.650Z,17.20
2017-11-21T04:16:55.546Z,16.67
2017-11-21T04:19:27.474Z,17.37
2017-11-21T04:21:59.367Z,18.07
2017-11-21T04:24:31.253Z,18.40
2017-11-21T04:27:03.193Z,18.97
2017-11-21T04:29:35.118Z,17.70
2017-11-21T04:32:07.001Z,16.73
2017-11-21T04:34:38.916Z,18.00
2017-11-21T04:37:11.562Z,18.00
2017-11-21T04:39:43.482Z,17.40
2017-11-21T04:42:15.355Z,17.30
2017-11-21T04:44:47.260Z,15.37
2017-11-21T04:47:19.146Z,16.60
2017-11-21T04:49:54.269Z,16.23
2017-11-21T04:52:26.922Z,15.33
2017-11-21T04:54:58.828Z,13.83
2017-11-21T04:57:30.707Z,14.73
2017-11-21T05:00:03.475Z,14.87
2017-11-21T05:02:35.359Z,13.60
2017-11-21T05:05:07.592Z,14.03
2017-11-21T05:07:39.471Z,13.17
2017-11-21T05:10:11.360Z,12.50
2017-11-21T05:12:43.254Z,12.37
2017-11-21T05:15:15.445Z,12.60
2017-11-21T05:17:47.330Z,12.03
2017-11-21T05:20:20.015Z,12.30
2017-11-21T05:22:51.891Z,11.43
2017-11-21T05:25:24.118Z,12.00
2017-11-21T05:27:56.008Z,11.33
2017-11-21T05:30:27.994Z,12.20
2017-11-21T05:33:11.838Z,11.57
2017-11-21T05:35:43.753Z,12.70
2017-11-21T05:38:15.637Z,10.33
2017-11-21T05:40:47.556Z,10.97
2017-11-21T05:43:19.460Z,11.17
2017-11-21T05:45:51.388Z,12.07
2017-11-21T05:48:23.286Z,12.57
2017-11-21T05:50:55.205Z,12.43
2017-11-21T05:53:27.094Z,12.70
2017-11-21T05:55:59.023Z,14.10
2017-11-21T05:58:31.693Z,13.80
2017-11-21T06:01:03.611Z,15.60
2017-11-21T06:03:35.511Z,15.17
2017-11-21T06:06:08.294Z,16.00
2017-11-21T06:08:41.074Z,15.20
2017-11-21T06:11:13.732Z,15.20
2017-11-21T06:13:45.704Z,14.60
2017-11-21T06:16:18.388Z,13.87
2017-11-21T06:18:51.041Z,14.90
2017-11-21T06:21:22.949Z,13.10
2017-11-21T06:23:54.829Z,13.00
2017-11-21T06:26:26.734Z,13.40
2017-11-21T06:28:58.605Z,12.23
2017-11-21T06:31:31.409Z,11.33
2017-11-21T06:34:03.297Z,11.73
2017-11-21T06:36:35.209Z,10.97
2017-11-21T06:39:07.878Z,11.67
2017-11-21T06:41:40.572Z,9.47
2017-11-21T06:44:13.226Z,8.80
2017-11-21T06:46:45.133Z,8.90
2017-11-21T06:49:17.009Z,8.57
2017-11-21T06:51:48.927Z,7.43
2017-11-21T06:54:21.557Z,7.83
2017-11-21T06:56:53.465Z,6.63
2017-11-21T06:59:26.110Z,6.20
2017-11-21T07:01:58.034Z,5.80
2017-11-21T07:04:29.893Z,5.03
2017-11-21T07:07:01.810Z,4.27
2017-11-21T07:09:33.685Z,3.77
2017-11-21T07:12:06.471Z,3.87
2017-11-21T07:14:39.115Z,3.00
2017-11-21T07:17:11.167Z,3.40
2017-11-21T07:19:43.041Z,3.43
2017-11-21T07:22:14.956Z,3.90
2017-11-21T07:24:46.845Z,3.00
2017-11-21T07:27:19.505Z,3.27
2017-11-21T07:29:51.385Z,3.20
2017-11-21T07:32:23.278Z,2.93
2017-11-21T07:34:55.926Z,3.40
2017-11-21T07:37:27.846Z,3.10
2017-11-21T07:40:00.001Z,3.10
2017-11-21T07:42:31.898Z,3.17
2017-11-21T07:45:03.773Z,5.23
2017-11-21T07:47:35.686Z,3.90
2017-11-21T07:50:07.569Z,3.90
2017-11-21T07:52:39.470Z,3.97
2017-11-21T07:55:11.377Z,4.03
2017-11-21T07:57:43.264Z,6.87
2017-11-21T08:00:15.155Z,7.70
2017-11-21T08:02:47.057Z,8.37
2017-11-21T08:05:18.941Z,8.67
2017-11-21T08:07:50.854Z,8.53
2017-11-21T08:10:23.518Z,9.60
2017-11-21T08:12:55.410Z,9.07
2017-11-21T08:15:27.290Z,7.93
2017-11-21T08:17:59.197Z,6.10
2017-11-21T08:20:31.069Z,5.63
2017-11-21T08:23:03.740Z,4.83
2017-11-21T08:25:35.610Z,5.20
2017-11-21T08:28:08.294Z,5.00
2017-11-21T08:30:40.937Z,4.00
2017-11-21T08:33:12.858Z,5.37
2017-11-21T08:35:44.802Z,5.00
2017-11-21T08:38:16.726Z,4.13
2017-11-21T08:40:50.365Z,6.07
2017-11-21T08:43:24.929Z,4.23
2017-11-21T08:45:56.822Z,4.30
2017-11-21T08:48:28.732Z,4.80
2017-11-21T08:51:00.597Z,4.30
2017-11-21T08:53:32.502Z,4.90
2017-11-21T08:56:04.373Z,4.60
2017-11-21T08:58:37.033Z,5.40
2017-11-21T09:01:08.933Z,5.07
2017-11-21T09:03:40.825Z,5.03
2017-11-21T09:06:12.729Z,4.77
2017-11-21T09:08:45.402Z,6.00
2017-11-21T09:11:17.278Z,5.80
2017-11-21T09:13:49.205Z,5.00
2017-11-21T09:16:21.092Z,7.23
2017-11-21T09:18:53.761Z,6.77
2017-11-21T09:21:25.645Z,5.67
2017-11-21T09:23:57.549Z,5.23
2017-11-21T09:26:29.421Z,7.40
2017-11-21T09:29:01.441Z,7.37
2017-11-21T09:31:33.309Z,6.03
2017-11-21T09:34:05.228Z,4.53
2017-11-21T09:36:37.105Z,4.93
2017-11-21T09:39:09.775Z,4.90
2017-11-21T09:41:42.427Z,5.37
2017-11-21T09:44:14.334Z,6.33
2017-11-21T09:46:46.212Z,5.43
2017-11-21T09:49:18.109Z,5.40
2017-11-21T09:51:49.993Z,7.00
2017-11-21T09:54:22.653Z,6.93
2017-11-21T09:56:54.533Z,6.53
2017-11-21T09:59:27.217Z,6.53
2017-11-21T10:02:01.641Z,6.17
2017-11-21T10:04:33.564Z,5.03
2017-11-21T10:07:05.501Z,5.47
2017-11-21T10:09:37.405Z,6.80
2017-11-21T10:12:09.286Z,5.80
2017-11-21T10:14:41.962Z,5.67
2017-11-21T10:17:14.630Z,4.97
2017-11-21T10:19:47.296Z,4.90
2017-11-21T10:22:19.180Z,4.53
2017-11-21T10:24:51.837Z,4.10
2017-11-21T10:27:23.708Z,3.77
2017-11-21T10:29:56.377Z,3.10
2017-11-21T10:32:28.252Z,3.77
2017-11-21T10:35:00.917Z,3.60
2017-11-21T10:37:33.576Z,3.63
2017-11-21T10:40:05.486Z,3.40
2017-11-21T10:42:37.361Z,3.30
2017-11-21T10:45:09.253Z,2.93
2017-11-21T10:47:41.137Z,2.70
2017-11-21T10:50:13.044Z,2.50
2017-11-21T10:52:44.920Z,3.07
2017-11-21T10:55:16.833Z,2.30
2017-11-21T10:57:49.465Z,2.17
2017-11-21T11:00:21.380Z,2.00
2017-11-21T11:02:53.258Z,2.00
2017-11-21T11:05:25.180Z,1.87
2017-11-21T11:07:57.821Z,1.90
2017-11-21T11:10:29.746Z,1.60
2017-11-21T11:13:01.621Z,1.63
2017-11-21T11:15:33.522Z,1.83
2017-11-21T11:18:05.411Z,1.53
2017-11-21T11:20:38.050Z,1.60
2017-11-21T11:23:09.937Z,1.20
2017-11-21T11:25:42.568Z,1.60
2017-11-21T11:28:14.484Z,1.57
2017-11-21T11:30:47.125Z,1.50
2017-11-21T11:33:19.054Z,1.50
2017-11-21T11:35:50.927Z,1.50
2017-11-21T11:38:22.834Z,1.47
2017-11-21T11:40:54.788Z,1.50
2017-11-21T11:43:26.686Z,1.60
2017-11-21T11:45:58.631Z,1.60
2017-11-21T11:48:31.300Z,1.40
2017-11-21T11:51:03.950Z,1.50
2017-11-21T11:53:35.870Z,1.30
2017-11-21T11:56:07.768Z,1.67
2017-11-21T11:58:39.679Z,1.57
2017-11-21T12:01:11.580Z,1.97
2017-11-21T12:03:43.496Z,1.20
2017-11-21T12:06:15.382Z,1.80
2017-11-21T12:08:47.311Z,1.70
2017-11-21T12:11:19.952Z,1.40
2017-11-21T12:13:51.854Z,1.30
2017-11-21T12:16:23.748Z,1.57
2017-11-21T12:18:55.972Z,1.70
2017-11-21T12:21:28.619Z,1.70
2017-11-21T12:24:00.523Z,1.47
2017-11-21T12:26:32.486Z,1.83
2017-11-21T12:29:04.406Z,1.20
2017-11-21T12:31:36.281Z,1.40
2017-11-21T12:34:08.968Z,1.07
2017-11-21T12:36:41.614Z,1.37
2017-11-21T12:39:13.836Z,1.53
2017-11-21T12:41:45.709Z,1.47
2017-11-21T12:44:17.614Z,2.00
2017-11-21T12:46:49.517Z,1.50
2017-11-21T12:49:21.413Z,1.30
2017-11-21T12:51:53.282Z,1.50
2017-11-21T12:54:25.185Z,1.90
2017-11-21T12:56:57.820Z,1.67
2017-11-21T12:59:29.733Z,2.10
2017-11-21T13:02:01.620Z,1.80
2017-11-21T13:04:33.528Z,1.80
2017-11-21T13:07:05.405Z,1.73
2017-11-21T13:09:38.064Z,1.80
2017-11-21T13:12:09.941Z,2.00
2017-11-21T13:14:42.607Z,1.80
2017-11-21T13:17:14.479Z,2.00
2017-11-21T13:19:47.163Z,2.20
2017-11-21T13:22:19.801Z,2.40
2017-11-21T13:24:51.699Z,2.03
2017-11-21T13:27:24.363Z,2.70
2017-11-21T13:29:56.277Z,2.50
2017-11-21T13:32:28.140Z,2.93
2017-11-21T13:35:00.028Z,2.83
2017-11-21T13:37:31.906Z,2.53
2017-11-21T13:40:04.580Z,2.40
2017-11-21T13:42:36.473Z,2.73
2017-11-21T13:45:08.377Z,2.63
2017-11-21T13:47:40.253Z,2.60
2017-11-21T13:50:12.169Z,2.80
2017-11-21T13:52:44.049Z,3.30
2017-11-21T13:55:16.725Z,2.30
2017-11-21T13:57:48.637Z,3.10
2017-11-21T14:00:21.307Z,3.00
2017-11-21T14:02:53.947Z,3.30
2017-11-21T14:05:26.556Z,3.20
2017-11-21T14:07:59.240Z,3.77
2017-11-21T14:10:31.155Z,3.43
2017-11-21T14:13:03.020Z,3.17
2017-11-21T14:15:34.926Z,3.10
2017-11-21T14:18:07.582Z,3.50
2017-11-21T14:20:39.485Z,4.10
2017-11-21T14:23:11.362Z,3.87
2017-11-21T14:25:43.257Z,3.83
2017-11-21T14:28:15.171Z,3.87
2017-11-21T14:30:47.076Z,4.00
2017-11-21T14:33:18.956Z,4.37
2017-11-21T14:35:50.856Z,3.73
2017-11-21T14:38:22.756Z,4.37
2017-11-21T14:40:54.669Z,4.47
2017-11-21T14:43:26.544Z,3.93
2017-11-21T14:45:58.444Z,5.43
2017-11-21T14:48:30.316Z,4.60
2017-11-21T14:51:02.228Z,4.53
2017-11-21T14:53:34.104Z,4.93
2017-11-21T14:56:05.997Z,5.83
2017-11-21T14:58:37.884Z,5.27
2017-11-21T15:01:10.541Z,5.40
2017-11-21T15:03:43.177Z,4.80
2017-11-21T15:06:15.078Z,4.70
2017-11-21T15:08:46.949Z,4.87
2017-11-21T15:11:19.640Z,4.70
2017-11-21T15:13:51.530Z,5.40
2017-11-21T15:16:23.656Z,4.73
2017-11-21T15:18:56.302Z,5.33
2017-11-21T15:21:28.230Z,5.60
2017-11-21T15:24:00.138Z,5.00
2017-11-21T15:26:32.053Z,5.40
2017-11-21T15:29:03.941Z,4.77
2017-11-21T15:31:35.844Z,5.83
2017-11-21T15:34:08.482Z,5.37
2017-11-21T15:36:40.389Z,5.53
2017-11-21T15:39:12.277Z,5.27
2017-11-21T15:41:44.181Z,4.83
2017-11-21T15:44:16.066Z,5.23
2017-11-21T15:46:48.730Z,5.90
2017-11-21T15:49:20.608Z,5.37
2017-11-21T15:51:52.493Z,5.30
2017-11-21T15:54:24.372Z,5.90
2017-11-21T15:56:56.286Z,5.10
2017-11-21T15:59:29.014Z,5.23
2017-11-21T16:02:00.944Z,5.77
2017-11-21T16:04:32.829Z,5.87
2017-11-21T16:07:04.741Z,5.50
2017-11-21T16:09:37.376Z,5.40
2017-11-21T16:12:09.298Z,5.97
2017-11-21T16:14:41.198Z,5.90
2017-11-21T16:17:13.102Z,5.20
2017-11-21T16:19:46.201Z,5.50
2017-11-21T16:22:18.266Z,6.30
2017-11-21T16:24:50.150Z,6.23
2017-11-21T16:27:22.057Z,5.77
2017-11-21T16:29:53.941Z,5.70
2017-11-21T16:32:26.639Z,6.20
2017-11-21T16:34:58.587Z,6.43
2017-11-21T16:37:30.486Z,5.97
2017-11-21T16:40:02.368Z,5.90
2017-11-21T16:42:34.313Z,6.27
2017-11-21T16:45:06.192Z,6.70
2017-11-21T16:47:38.114Z,6.73
2017-11-21T16:50:09.998Z,7.87
2017-11-21T16:52:41.902Z,7.63
2017-11-21T16:55:14.558Z,6.97
2017-11-21T16:57:46.768Z,7.70
2017-11-21T17:00:18.669Z,7.17
2017-11-21T17:02:50.581Z,7.60
2017-11-21T17:05:22.558Z,7.53
2017-11-21T17:07:54.461Z,7.40
2017-11-21T17:10:26.337Z,7.50
2017-11-21T17:12:58.285Z,7.73
2017-11-21T17:15:30.201Z,8.40
2017-11-21T17:18:02.114Z,8.60
2017-11-21T17:20:33.993Z,9.37
2017-11-21T17:23:06.989Z,8.07
2017-11-21T17:25:38.879Z,8.33
2017-11-21T17:28:10.769Z,6.83
2017-11-21T17:30:42.637Z,6.63
2017-11-21T17:33:14.559Z,6.70
2017-11-21T17:35:46.441Z,6.70
2017-11-21T17:38:18.346Z,6.30
2017-11-21T17:40:51.014Z,6.83
2017-11-21T17:43:23.715Z,7.00
2017-11-21T17:45:55.598Z,7.30
2017-11-21T17:48:27.527Z,5.90
2017-11-21T17:50:59.397Z,7.43
2017-11-21T17:53:37.154Z,7.00
2017-11-21T17:56:09.026Z,6.67
2017-11-21T17:58:41.038Z,6.20
2017-11-21T18:01:12.916Z,6.53
2017-11-21T18:03:44.935Z,6.50
2017-11-21T18:06:16.824Z,6.57
2017-11-21T18:08:48.746Z,6.90
2017-11-21T18:11:21.395Z,6.30
2017-11-21T18:13:53.329Z,7.07
2017-11-21T18:16:25.221Z,6.70
2017-11-21T18:18:57.137Z,7.37
2017-11-21T18:21:29.019Z,7.63
2017-11-21T18:24:00.947Z,7.77
2017-11-21T18:26:32.834Z,8.13
2017-11-21T18:29:04.742Z,7.20
2017-11-21T18:31:37.384Z,7.43
2017-11-21T18:34:09.286Z,7.80
2017-11-21T18:36:41.930Z,7.40
2017-11-21T18:39:13.830Z,7.20
2017-11-21T18:41:45.712Z,7.30
2017-11-21T18:44:17.617Z,7.73
2017-11-21T18:46:49.501Z,6.53
2017-11-21T18:49:22.192Z,9.57
2017-11-21T18:51:54.865Z,9.07
2017-11-21T18:54:26.882Z,8.83
2017-11-21T18:56:58.794Z,7.10
2017-11-21T18:59:31.473Z,7.17
2017-11-21T19:02:03.345Z,7.63
2017-11-21T19:04:35.254Z,6.93
2017-11-21T19:07:07.166Z,7.60
2017-11-21T19:09:39.067Z,8.30
2017-11-21T19:12:10.954Z,7.93
2017-11-21T19:14:42.866Z,8.33
2017-11-21T19:17:15.005Z,8.00
2017-11-21T19:19:46.917Z,8.10
2017-11-21T19:22:18.805Z,7.53
2017-11-21T19:24:50.709Z,7.63
2017-11-21T19:27:22.587Z,8.20
2017-11-21T19:29:54.515Z,9.30
2017-11-21T19:32:26.430Z,9.97
2017-11-21T19:34:58.341Z,10.23
2017-11-21T19:37:30.222Z,11.10
2017-11-21T19:40:02.142Z,10.43
2017-11-21T19:42:34.794Z,10.47
2017-11-21T19:45:06.764Z,10.27
2017-11-21T19:47:38.653Z,11.77
2017-11-21T19:50:10.579Z,10.50
2017-11-21T19:52:42.789Z,10.20
2017-11-21T19:55:14.696Z,10.30
2017-11-21T19:57:46.590Z,11.37
2017-11-21T20:00:19.298Z,11.33
2017-11-21T20:02:51.173Z,11.97
2017-11-21T20:05:23.079Z,10.70
2017-11-21T20:07:54.969Z,11.53
2017-11-21T20:10:26.894Z,10.63
2017-11-21T20:12:58.780Z,10.77
2017-11-21T20:15:31.461Z,10.23
2017-11-21T20:18:03.349Z,9.33
2017-11-21T20:20:35.249Z,9.27
2017-11-21T20:23:07.143Z,8.53
2017-11-21T20:25:39.854Z,8.43
2017-11-21T20:28:11.740Z,7.67
2017-11-21T20:30:43.660Z,7.37
2017-11-21T20:33:15.537Z,7.33
2017-11-21T20:35:47.459Z,6.67
2017-11-21T20:38:20.105Z,7.73
2017-11-21T20:40:52.019Z,7.97
2017-11-21T20:43:23.906Z,7.23
2017-11-21T20:45:55.833Z,7.50
2017-11-21T20:48:27.734Z,7.37
2017-11-21T20:50:59.617Z,8.80
2017-11-21T20:53:31.817Z,12.60
2017-11-21T20:56:03.705Z,8.87
2017-11-21T20:58:35.629Z,7.40
2017-11-21T21:01:08.366Z,7.50
2017-11-21T21:03:40.247Z,7.40
2017-11-21T21:06:12.160Z,7.13
2017-11-21T21:08:44.033Z,7.30
2017-11-21T21:11:15.952Z,7.67
2017-11-21T21:13:48.612Z,8.50
2017-11-21T21:16:21.294Z,7.93
2017-11-21T21:18:53.929Z,8.37
2017-11-21T21:21:25.832Z,7.63
2017-11-21T21:23:58.484Z,7.80
2017-11-21T21:26:30.395Z,7.37
2017-11-21T21:29:02.266Z,7.97
2017-11-21T21:31:34.161Z,8.10
2017-11-21T21:34:06.038Z,7.57
2017-11-21T21:36:38.032Z,7.50
2017-11-21T21:39:10.692Z,7.60
2017-11-21T21:41:43.353Z,7.93
2017-11-21T21:44:15.241Z,7.53
2017-11-21T21:46:47.914Z,7.20
2017-11-21T21:49:20.553Z,7.73
